createdAt,value
2023-05-22T00:00:23.488Z,35.50
2023-05-22T00:02:50.976Z,37.75
2023-05-22T00:05:18.599Z,38.00
2023-05-22T00:07:46.220Z,35.00
2023-05-22T00:10:12.913Z,39.00
2023-05-22T00:12:39.504Z,35.50
2023-05-22T00:15:06.336Z,38.00
2023-05-22T00:17:34.341Z,39.00
2023-05-22T00:20:11.187Z,35.00
2023-05-22T00:22:37.903Z,39.00
2023-05-22T00:25:04.779Z,35.50
2023-05-22T00:27:31.379Z,39.00
2023-05-22T00:29:58.060Z,36.80
2023-05-22T00:32:25.424Z,35.60
2023-05-22T00:34:52.025Z,37.60
2023-05-22T00:37:19.844Z,40.00
2023-05-22T00:39:46.743Z,36.25
2023-05-22T00:42:13.408Z,36.00
2023-05-22T00:44:39.878Z,35.00
2023-05-22T00:47:06.442Z,38.00
2023-05-22T00:49:32.948Z,40.00
2023-05-22T00:51:59.987Z,36.00
2023-05-22T00:54:26.537Z,35.00
2023-05-22T00:56:53.220Z,34.00
2023-05-22T00:59:19.799Z,38.00
2023-05-22T01:01:46.331Z,39.25
2023-05-22T01:04:12.983Z,38.20
2023-05-22T01:06:41.425Z,39.60
2023-05-22T01:09:08.252Z,34.50
2023-05-22T01:11:38.208Z,36.00
2023-05-22T01:14:13.953Z,34.00
2023-05-22T01:16:52.427Z,36.00
2023-05-22T01:19:33.550Z,38.40
2023-05-22T01:22:21.709Z,37.00
2023-05-22T01:24:54.383Z,35.25
2023-05-22T01:27:39.485Z,35.00
2023-05-22T01:30:17.773Z,36.25
2023-05-22T01:32:46.716Z,35.00
2023-05-22T01:35:15.448Z,32.50
2023-05-22T01:37:42.745Z,36.00
2023-05-22T01:40:10.147Z,36.50
2023-05-22T01:42:36.831Z,32.60
2023-05-22T01:45:03.766Z,35.80
2023-05-22T01:47:30.691Z,34.75
2023-05-22T01:49:57.384Z,37.50
2023-05-22T01:52:42.283Z,35.00
2023-05-22T01:55:13.709Z,34.00
2023-05-22T01:58:00.468Z,31.75
2023-05-22T02:00:27.715Z,29.00
2023-05-22T02:02:58.560Z,33.50
2023-05-22T02:05:26.787Z,33.80
2023-05-22T02:07:56.440Z,32.00
2023-05-22T02:10:23.968Z,32.00
2023-05-22T02:12:50.618Z,35.20
2023-05-22T02:15:17.199Z,35.00
2023-05-22T02:17:45.779Z,33.00
2023-05-22T02:20:17.012Z,33.00
2023-05-22T02:22:47.016Z,33.80
2023-05-22T02:25:14.864Z,34.00
2023-05-22T02:27:42.210Z,31.00
2023-05-22T02:30:09.190Z,34.50
2023-05-22T02:32:36.113Z,32.80
2023-05-22T02:35:03.227Z,37.33
2023-05-22T02:37:29.870Z,32.00
2023-05-22T02:39:56.725Z,34.00
2023-05-22T02:42:23.232Z,33.40
2023-05-22T02:44:49.737Z,32.60
2023-05-22T02:47:16.264Z,36.00
2023-05-22T02:49:42.797Z,32.00
2023-05-22T02:52:09.251Z,32.75
2023-05-22T02:54:35.730Z,31.20
2023-05-22T02:57:02.979Z,30.80
2023-05-22T02:59:29.873Z,30.00
2023-05-22T03:01:56.618Z,30.00
2023-05-22T03:04:24.227Z,29.00
2023-05-22T03:06:50.777Z,31.00
2023-05-22T03:09:17.544Z,30.00
2023-05-22T03:11:44.083Z,33.80
2023-05-22T03:14:10.595Z,32.00
2023-05-22T03:16:37.196Z,34.75
2023-05-22T03:19:14.152Z,26.25
2023-05-22T03:21:41.304Z,34.25
2023-05-22T03:24:08.049Z,32.00
2023-05-22T03:26:34.555Z,30.80
2023-05-22T03:29:01.096Z,30.00
2023-05-22T03:31:28.573Z,31.75
2023-05-22T03:33:55.069Z,32.67
2023-05-22T03:36:21.804Z,29.60
2023-05-22T03:38:48.325Z,32.00
2023-05-22T03:41:14.942Z,31.50
2023-05-22T03:43:44.143Z,29.00
2023-05-22T03:46:11.490Z,29.75
2023-05-22T03:48:38.568Z,31.60
2023-05-22T03:51:05.133Z,29.00
2023-05-22T03:53:31.637Z,29.00
2023-05-22T03:55:58.095Z,30.00
2023-05-22T03:58:27.826Z,32.20
2023-05-22T04:00:55.607Z,31.00
2023-05-22T04:03:22.167Z,30.00
2023-05-22T04:05:48.694Z,28.40
2023-05-22T04:08:15.217Z,28.00
2023-05-22T04:10:42.579Z,27.00
2023-05-22T04:13:09.153Z,28.60
2023-05-22T04:15:36.575Z,31.60
2023-05-22T04:18:03.250Z,32.00
2023-05-22T04:20:29.859Z,32.00
2023-05-22T04:22:56.665Z,28.00
2023-05-22T04:25:23.159Z,28.50
2023-05-22T04:27:50.657Z,25.00
2023-05-22T04:30:17.622Z,28.40
2023-05-22T04:32:44.642Z,27.60
2023-05-22T04:35:12.424Z,32.00
2023-05-22T04:37:41.086Z,26.75
2023-05-22T04:40:11.445Z,24.00
2023-05-22T04:42:38.716Z,25.00
2023-05-22T04:45:05.832Z,23.20
2023-05-22T04:47:32.400Z,25.60
2023-05-22T04:50:00.187Z,30.00
2023-05-22T04:52:26.849Z,25.00
2023-05-22T04:54:54.485Z,26.50
2023-05-22T04:57:21.449Z,28.00
2023-05-22T04:59:48.409Z,26.00
2023-05-22T05:02:14.944Z,29.50
2023-05-22T05:04:41.485Z,29.60
2023-05-22T05:07:08.997Z,31.40
2023-05-22T05:09:35.724Z,32.00
2023-05-22T05:12:02.456Z,26.80
2023-05-22T05:14:28.951Z,28.50
2023-05-22T05:16:57.114Z,23.80
2023-05-22T05:19:23.762Z,30.00
2023-05-22T05:21:50.487Z,26.00
2023-05-22T05:24:20.004Z,28.80
2023-05-22T05:26:46.486Z,27.00
2023-05-22T05:29:13.103Z,27.25
2023-05-22T05:31:39.768Z,29.40
2023-05-22T05:34:06.472Z,28.00
2023-05-22T05:36:33.001Z,24.50
2023-05-22T05:38:59.572Z,25.60
2023-05-22T05:41:28.776Z,27.20
2023-05-22T05:43:57.550Z,29.50
2023-05-22T05:46:24.131Z,30.00
2023-05-22T05:48:50.672Z,24.00
2023-05-22T05:51:17.206Z,26.50
2023-05-22T05:53:43.660Z,26.25
2023-05-22T05:56:10.248Z,26.40
2023-05-22T05:58:37.114Z,24.60
2023-05-22T06:01:03.740Z,24.40
2023-05-22T06:03:31.000Z,27.33
2023-05-22T06:05:58.194Z,25.20
2023-05-22T06:08:24.791Z,23.00
2023-05-22T06:10:51.645Z,21.00
2023-05-22T06:13:18.131Z,20.00
2023-05-22T06:15:44.642Z,21.40
2023-05-22T06:18:11.964Z,25.00
2023-05-22T06:20:39.683Z,27.00
2023-05-22T06:23:06.485Z,22.50
2023-05-22T06:25:33.144Z,25.80
2023-05-22T06:27:59.657Z,23.75
2023-05-22T06:30:38.721Z,22.00
2023-05-22T06:33:10.219Z,25.60
2023-05-22T06:35:37.056Z,21.20
2023-05-22T06:38:03.572Z,18.80
2023-05-22T06:40:30.103Z,27.00
2023-05-22T06:42:57.757Z,25.00
2023-05-22T06:45:24.285Z,18.20
2023-05-22T06:47:54.310Z,21.50
2023-05-22T06:50:21.556Z,22.20
2023-05-22T06:52:48.282Z,14.20
2023-05-22T06:55:14.977Z,18.80
2023-05-22T06:57:41.489Z,23.00
2023-05-22T07:00:09.655Z,23.00
2023-05-22T07:02:36.312Z,18.50
2023-05-22T07:05:02.940Z,18.00
2023-05-22T07:07:29.497Z,22.75
2023-05-22T07:09:56.021Z,15.40
2023-05-22T07:12:26.135Z,16.50
2023-05-22T07:14:53.214Z,20.00
2023-05-22T07:17:21.810Z,16.00
2023-05-22T07:19:48.599Z,16.33
2023-05-22T07:22:15.765Z,15.25
2023-05-22T07:24:42.319Z,13.00
2023-05-22T07:27:09.399Z,15.20
2023-05-22T07:29:36.344Z,14.40
2023-05-22T07:32:02.931Z,17.00
2023-05-22T07:34:33.235Z,14.50
2023-05-22T07:37:00.410Z,15.40
2023-05-22T07:39:27.028Z,15.00
2023-05-22T07:41:56.087Z,18.20
2023-05-22T07:44:23.582Z,16.60
2023-05-22T07:46:50.133Z,15.20
2023-05-22T07:49:19.732Z,15.60
2023-05-22T07:51:46.603Z,14.40
2023-05-22T07:54:14.315Z,16.00
2023-05-22T07:56:41.708Z,13.00
2023-05-22T07:59:09.304Z,12.75
2023-05-22T08:01:37.695Z,18.50
2023-05-22T08:04:05.054Z,15.80
2023-05-22T08:06:32.030Z,14.20
2023-05-22T08:09:00.124Z,13.50
2023-05-22T08:11:26.678Z,12.40
2023-05-22T08:13:53.170Z,15.00
2023-05-22T08:16:19.653Z,18.00
2023-05-22T08:18:46.222Z,15.00
2023-05-22T08:21:12.898Z,14.80
2023-05-22T08:23:39.391Z,16.00
2023-05-22T08:26:06.516Z,17.00
2023-05-22T08:28:32.960Z,16.00
2023-05-22T08:30:59.402Z,16.00
2023-05-22T08:33:26.866Z,16.60
2023-05-22T08:35:53.349Z,20.50
2023-05-22T08:38:19.876Z,15.60
2023-05-22T08:40:49.021Z,15.00
2023-05-22T08:43:15.943Z,16.75
2023-05-22T08:45:44.336Z,16.00
2023-05-22T08:48:13.210Z,14.00
2023-05-22T08:50:42.122Z,16.60
2023-05-22T08:53:11.493Z,18.25
2023-05-22T08:55:38.262Z,16.50
2023-05-22T08:58:05.539Z,15.00
2023-05-22T09:00:32.683Z,17.25
2023-05-22T09:02:59.701Z,16.00
2023-05-22T09:05:26.831Z,14.25
2023-05-22T09:07:56.562Z,17.20
2023-05-22T09:10:25.296Z,14.00
2023-05-22T09:13:04.856Z,18.60
2023-05-22T09:15:32.428Z,17.00
2023-05-22T09:17:59.488Z,18.00
2023-05-22T09:20:26.336Z,20.50
2023-05-22T09:22:52.923Z,19.00
2023-05-22T09:25:20.165Z,16.40
2023-05-22T09:27:47.448Z,16.80
2023-05-22T09:30:19.836Z,18.50
2023-05-22T09:32:48.620Z,15.80
2023-05-22T09:35:15.535Z,15.00
2023-05-22T09:37:42.464Z,18.40
2023-05-22T09:40:11.260Z,17.40
2023-05-22T09:42:37.781Z,15.40
2023-05-22T09:45:08.190Z,16.40
2023-05-22T09:47:35.346Z,16.80
2023-05-22T09:50:04.571Z,17.00
2023-05-22T09:52:34.918Z,13.60
2023-05-22T09:55:03.420Z,15.75
2023-05-22T09:57:31.337Z,14.00
2023-05-22T09:59:58.937Z,20.00
2023-05-22T10:02:26.557Z,19.00
2023-05-22T10:04:53.496Z,14.20
2023-05-22T10:07:24.891Z,19.00
2023-05-22T10:09:52.994Z,16.00
2023-05-22T10:12:21.680Z,16.00
2023-05-22T10:14:48.508Z,15.00
2023-05-22T10:17:17.011Z,16.40
2023-05-22T10:19:44.744Z,14.00
2023-05-22T10:22:21.486Z,18.20
2023-05-22T10:24:52.252Z,18.40
2023-05-22T10:27:18.808Z,17.40
2023-05-22T10:29:50.858Z,15.00
2023-05-22T10:32:26.321Z,15.75
2023-05-22T10:35:11.366Z,19.50
2023-05-22T10:37:46.907Z,15.40
2023-05-22T10:40:16.312Z,15.80
2023-05-22T10:42:43.383Z,17.00
2023-05-22T10:45:10.743Z,17.00
2023-05-22T10:47:37.440Z,20.00
2023-05-22T10:50:07.275Z,14.50
2023-05-22T10:52:34.069Z,14.50
2023-05-22T10:55:01.453Z,17.25
2023-05-22T10:57:33.443Z,17.00
2023-05-22T11:00:09.676Z,18.00
2023-05-22T11:02:40.632Z,15.40
2023-05-22T11:05:19.186Z,21.50
2023-05-22T11:07:45.827Z,18.80
2023-05-22T11:10:12.315Z,14.50
2023-05-22T11:12:39.257Z,16.00
2023-05-22T11:15:06.901Z,19.00
2023-05-22T11:17:42.922Z,18.00
2023-05-22T11:20:20.336Z,20.60
2023-05-22T11:22:52.029Z,15.00
2023-05-22T11:25:19.520Z,18.00
2023-05-22T11:27:47.478Z,18.00
2023-05-22T11:30:14.572Z,19.00
2023-05-22T11:32:45.050Z,18.00
2023-05-22T11:35:15.712Z,17.40
2023-05-22T11:37:42.445Z,15.25
2023-05-22T11:40:09.768Z,18.00
2023-05-22T11:42:37.098Z,26.50
2023-05-22T11:45:04.742Z,21.40
2023-05-22T11:47:31.954Z,19.00
2023-05-22T11:49:59.885Z,18.00
2023-05-22T11:52:30.147Z,17.40
2023-05-22T11:54:56.678Z,15.00
2023-05-22T11:57:23.209Z,20.00
2023-05-22T11:59:49.897Z,27.00
2023-05-22T12:02:16.611Z,26.67
2023-05-22T12:04:43.270Z,25.50
2023-05-22T12:07:09.896Z,24.00
2023-05-22T12:09:38.519Z,37.25
2023-05-22T12:12:05.140Z,27.00
2023-05-22T12:14:31.993Z,41.00
2023-05-22T12:16:58.777Z,26.00
2023-05-22T12:19:26.057Z,21.80
2023-05-22T12:21:52.885Z,29.50
2023-05-22T12:24:26.062Z,26.00
2023-05-22T12:26:53.252Z,27.00
2023-05-22T12:29:21.755Z,20.60
2023-05-22T12:31:48.544Z,27.80
2023-05-22T12:34:17.192Z,22.50
2023-05-22T12:36:44.169Z,19.00
2023-05-22T12:39:11.713Z,18.50
2023-05-22T12:41:38.951Z,18.75
2023-05-22T12:44:05.800Z,21.60
2023-05-22T12:46:32.608Z,18.50
2023-05-22T12:48:59.415Z,18.60
2023-05-22T12:51:27.098Z,22.00
2023-05-22T12:53:53.623Z,18.40
2023-05-22T12:56:20.142Z,20.00
2023-05-22T12:58:46.691Z,19.00
2023-05-22T13:01:13.312Z,22.40
2023-05-22T13:03:39.928Z,19.00
2023-05-22T13:06:06.484Z,18.60
2023-05-22T13:08:33.073Z,20.00
2023-05-22T13:10:59.587Z,20.80
2023-05-22T13:13:26.171Z,18.00
2023-05-22T13:15:52.786Z,17.20
2023-05-22T13:18:19.272Z,17.60
2023-05-22T13:20:46.035Z,16.00
2023-05-22T13:23:12.598Z,21.00
2023-05-22T13:25:39.258Z,18.20
2023-05-22T13:28:05.911Z,26.00
2023-05-22T13:30:32.477Z,20.40
2023-05-22T13:32:59.125Z,18.67
2023-05-22T13:35:25.612Z,23.40
2023-05-22T13:37:52.224Z,18.25
2023-05-22T13:40:19.459Z,23.60
2023-05-22T13:42:46.212Z,17.00
2023-05-22T13:45:12.882Z,18.75
2023-05-22T13:47:39.632Z,17.00
2023-05-22T13:50:06.470Z,16.60
2023-05-22T13:52:32.981Z,14.00
2023-05-22T13:55:00.087Z,16.00
2023-05-22T13:57:26.672Z,19.75
2023-05-22T13:59:53.231Z,26.75
2023-05-22T14:02:20.866Z,27.20
2023-05-22T14:04:48.603Z,30.00
2023-05-22T14:07:15.786Z,15.40
2023-05-22T14:09:42.321Z,30.50
2023-05-22T14:12:08.884Z,18.25
2023-05-22T14:14:35.596Z,16.00
2023-05-22T14:17:02.168Z,17.20
2023-05-22T14:19:28.914Z,15.50
2023-05-22T14:21:55.391Z,16.20
2023-05-22T14:24:21.830Z,16.50
2023-05-22T14:26:48.353Z,13.00
2023-05-22T14:29:14.990Z,15.40
2023-05-22T14:31:51.252Z,19.80
2023-05-22T14:34:18.726Z,16.75
2023-05-22T14:36:45.174Z,15.75
2023-05-22T14:39:11.676Z,15.00
2023-05-22T14:41:38.224Z,16.50
2023-05-22T14:44:04.679Z,20.50
2023-05-22T14:46:31.672Z,13.40
2023-05-22T14:48:58.287Z,11.50
2023-05-22T14:51:24.792Z,12.60
2023-05-22T14:53:51.344Z,16.00
2023-05-22T14:56:17.864Z,16.00
2023-05-22T14:58:44.407Z,14.60
2023-05-22T15:01:10.897Z,17.00
2023-05-22T15:03:37.413Z,13.00
2023-05-22T15:06:04.050Z,17.00
2023-05-22T15:08:30.581Z,12.50
2023-05-22T15:10:57.029Z,22.00
2023-05-22T15:13:23.565Z,19.00
2023-05-22T15:15:50.103Z,19.67
2023-05-22T15:18:16.954Z,24.25
2023-05-22T15:20:43.507Z,26.20
2023-05-22T15:23:10.007Z,26.80
2023-05-22T15:25:36.831Z,24.20
2023-05-22T15:28:06.477Z,27.00
2023-05-22T15:30:36.530Z,29.00
2023-05-22T15:33:03.832Z,25.20
2023-05-22T15:35:31.147Z,24.20
2023-05-22T15:38:00.914Z,17.75
2023-05-22T15:40:27.653Z,17.40
2023-05-22T15:42:54.422Z,20.50
2023-05-22T15:45:21.290Z,22.50
2023-05-22T15:47:47.873Z,22.00
2023-05-22T15:50:14.394Z,24.50
2023-05-22T15:52:41.106Z,17.75
2023-05-22T15:55:07.777Z,18.60
2023-05-22T15:57:34.307Z,14.80
2023-05-22T16:00:01.000Z,17.00
2023-05-22T16:02:27.508Z,15.00
2023-05-22T16:04:54.024Z,18.40
2023-05-22T16:07:20.610Z,15.00
2023-05-22T16:09:47.118Z,15.50
2023-05-22T16:12:13.591Z,12.00
2023-05-22T16:14:40.392Z,14.00
2023-05-22T16:17:07.076Z,15.00
2023-05-22T16:19:33.773Z,12.80
2023-05-22T16:22:00.492Z,14.00
2023-05-22T16:24:27.031Z,13.20
2023-05-22T16:26:53.587Z,12.00
2023-05-22T16:29:23.497Z,14.40
2023-05-22T16:31:50.128Z,12.50
2023-05-22T16:34:16.940Z,11.80
2023-05-22T16:36:43.613Z,12.00
2023-05-22T16:39:10.108Z,12.00
2023-05-22T16:41:39.350Z,10.00
2023-05-22T16:44:05.830Z,11.00
2023-05-22T16:46:32.564Z,11.00
2023-05-22T16:48:59.103Z,9.40
2023-05-22T16:51:25.626Z,10.50
2023-05-22T16:53:52.119Z,9.00
2023-05-22T16:56:20.803Z,8.00
2023-05-22T16:58:47.733Z,8.25
2023-05-22T17:01:14.536Z,10.80
2023-05-22T17:03:41.295Z,10.00
2023-05-22T17:06:09.009Z,11.00
2023-05-22T17:08:35.562Z,9.50
2023-05-22T17:11:02.050Z,13.60
2023-05-22T17:13:28.520Z,15.75
2023-05-22T17:15:55.063Z,11.50
2023-05-22T17:18:21.570Z,11.00
2023-05-22T17:20:51.806Z,20.40
2023-05-22T17:23:18.477Z,13.40
2023-05-22T17:25:46.819Z,9.50
2023-05-22T17:28:17.499Z,8.75
2023-05-22T17:30:44.393Z,8.00
2023-05-22T17:33:11.095Z,9.00
2023-05-22T17:35:37.795Z,11.00
2023-05-22T17:38:04.394Z,12.50
2023-05-22T17:43:02.542Z,10.00
2023-05-22T17:45:29.912Z,17.60
2023-05-22T17:47:56.461Z,11.00
2023-05-22T17:50:22.961Z,14.40
2023-05-22T17:52:49.431Z,15.00
2023-05-22T17:55:15.928Z,11.75
2023-05-22T17:57:42.490Z,16.00
2023-05-22T18:00:10.198Z,15.60
2023-05-22T18:02:37.148Z,17.50
2023-05-22T18:05:04.225Z,16.25
2023-05-22T18:07:30.804Z,16.50
2023-05-22T18:09:57.397Z,20.33
2023-05-22T18:12:31.652Z,15.25
2023-05-22T18:14:59.010Z,16.25
2023-05-22T18:17:25.637Z,19.00
2023-05-22T18:19:52.181Z,16.20
2023-05-22T18:22:18.709Z,17.25
2023-05-22T18:24:45.199Z,18.80
2023-05-22T18:27:11.698Z,17.67
2023-05-22T18:29:39.603Z,19.00
2023-05-22T18:32:09.416Z,17.50
2023-05-22T18:34:37.799Z,19.80
2023-05-22T18:37:04.694Z,17.40
2023-05-22T18:39:31.432Z,18.00
2023-05-22T18:41:58.680Z,17.00
2023-05-22T18:44:25.405Z,18.25
2023-05-22T18:46:51.968Z,16.60
2023-05-22T18:49:18.565Z,21.40
2023-05-22T18:51:45.077Z,16.40
2023-05-22T18:54:11.534Z,18.00
2023-05-22T18:56:38.783Z,15.00
2023-05-22T18:59:05.346Z,16.75
2023-05-22T19:01:31.826Z,16.00
2023-05-22T19:03:58.406Z,17.40
2023-05-22T19:06:26.283Z,16.00
2023-05-22T19:08:52.834Z,16.50
2023-05-22T19:11:19.327Z,16.00
2023-05-22T19:13:45.879Z,21.00
2023-05-22T19:16:13.229Z,24.00
2023-05-22T19:18:39.928Z,21.00
2023-05-22T19:21:06.525Z,19.75
2023-05-22T19:23:34.215Z,21.40
2023-05-22T19:26:00.792Z,19.00
2023-05-22T19:28:27.434Z,21.00
2023-05-22T19:30:57.349Z,21.80
2023-05-22T19:33:25.623Z,25.60
2023-05-22T19:35:52.693Z,22.00
2023-05-22T19:38:19.608Z,22.50
2023-05-22T19:40:46.566Z,23.00
2023-05-22T19:43:13.286Z,21.60
2023-05-22T19:45:39.836Z,25.00
2023-05-22T19:48:06.496Z,25.00
2023-05-22T19:50:33.417Z,27.00
2023-05-22T19:52:59.886Z,28.00
2023-05-22T19:55:26.500Z,23.00
2023-05-22T19:57:53.284Z,24.75
2023-05-22T20:00:21.073Z,23.20
2023-05-22T20:02:50.264Z,23.50
2023-05-22T20:05:17.112Z,27.00
2023-05-22T20:07:43.682Z,27.25
2023-05-22T20:10:10.684Z,25.60
2023-05-22T20:12:37.772Z,26.60
2023-05-22T20:15:06.828Z,23.00
2023-05-22T20:17:34.142Z,24.00
2023-05-22T20:20:01.010Z,23.75
2023-05-22T20:22:27.559Z,26.00
2023-05-22T20:24:54.362Z,21.60
2023-05-22T20:27:21.128Z,20.75
2023-05-22T20:29:49.990Z,23.50
2023-05-22T20:32:17.052Z,28.25
2023-05-22T20:34:45.201Z,25.80
2023-05-22T20:37:12.205Z,23.60
2023-05-22T20:39:38.778Z,23.80
2023-05-22T20:42:06.335Z,25.50
2023-05-22T20:44:32.916Z,28.75
2023-05-22T20:47:00.911Z,26.20
2023-05-22T20:49:28.003Z,22.80
2023-05-22T20:51:54.582Z,19.50
2023-05-22T20:54:21.351Z,22.00
2023-05-22T20:56:47.887Z,26.25
2023-05-22T20:59:14.414Z,21.00
2023-05-22T21:01:41.058Z,23.40
2023-05-22T21:04:07.746Z,24.00
2023-05-22T21:06:34.434Z,19.50
2023-05-22T21:09:01.749Z,22.00
2023-05-22T21:11:28.579Z,23.50
2023-05-22T21:13:55.052Z,23.33
2023-05-22T21:16:21.548Z,22.00
2023-05-22T21:18:48.188Z,24.50
2023-05-22T21:21:15.782Z,20.00
2023-05-22T21:23:43.275Z,25.00
2023-05-22T21:26:09.828Z,22.00
2023-05-22T21:28:36.589Z,27.00
2023-05-22T21:31:03.097Z,28.00
2023-05-22T21:33:29.723Z,26.75
2023-05-22T21:35:56.215Z,22.00
2023-05-22T21:38:22.724Z,20.50
2023-05-22T21:40:49.261Z,21.40
2023-05-22T21:43:15.713Z,18.00
2023-05-22T21:45:42.294Z,20.40
2023-05-22T21:48:08.879Z,25.00
2023-05-22T21:50:35.424Z,25.50
2023-05-22T21:53:01.879Z,23.75
2023-05-22T21:55:28.340Z,30.00
2023-05-22T21:57:55.713Z,23.60
2023-05-22T22:00:22.838Z,26.50
2023-05-22T22:02:49.595Z,23.00
2023-05-22T22:05:18.644Z,28.00
2023-05-22T22:07:45.229Z,25.75
2023-05-22T22:10:11.786Z,29.80
2023-05-22T22:12:38.243Z,26.00
2023-05-22T22:15:04.908Z,27.00
2023-05-22T22:17:31.491Z,27.75
2023-05-22T22:19:58.156Z,28.00
2023-05-22T22:22:24.821Z,27.50
2023-05-22T22:24:51.323Z,31.50
2023-05-22T22:27:17.884Z,29.50
2023-05-22T22:29:44.502Z,26.40
2023-05-22T22:32:12.938Z,29.00
2023-05-22T22:34:39.513Z,23.00
2023-05-22T22:37:06.942Z,29.80
2023-05-22T22:39:33.428Z,28.40
2023-05-22T22:42:05.214Z,24.75
2023-05-22T22:44:32.355Z,25.00
2023-05-22T22:46:58.854Z,27.40
2023-05-22T22:49:25.387Z,29.25
2023-05-22T22:51:51.925Z,26.25
2023-05-22T22:54:18.458Z,28.00
2023-05-22T22:56:46.531Z,27.50
2023-05-22T22:59:12.997Z,25.75
2023-05-22T23:01:39.541Z,27.00
2023-05-22T23:04:06.156Z,29.80
2023-05-22T23:06:33.042Z,29.40
2023-05-22T23:08:59.816Z,25.60
2023-05-22T23:11:37.592Z,24.80
2023-05-22T23:14:08.396Z,27.60
2023-05-22T23:16:36.101Z,26.60
2023-05-22T23:19:05.800Z,29.25
2023-05-22T23:21:32.986Z,24.50
2023-05-22T23:23:59.683Z,27.00
2023-05-22T23:26:27.484Z,28.60
2023-05-22T23:28:54.064Z,27.75
2023-05-22T23:31:26.259Z,30.75
2023-05-22T23:33:53.063Z,29.00
2023-05-22T23:36:19.517Z,31.25
2023-05-22T23:38:48.993Z,30.00
2023-05-22T23:41:17.485Z,32.25
2023-05-22T23:43:44.429Z,28.60
2023-05-22T23:46:13.350Z,29.50
2023-05-22T23:48:40.201Z,27.00
2023-05-22T23:51:09.019Z,26.50
2023-05-22T23:53:36.242Z,25.00
2023-05-22T23:56:03.136Z,27.00
2023-05-22T23:58:30.302Z,26.00
